Pagrindinis puslapis
METAR-TAF:

METAR-TAF

Oro uostai :

Pontianakas, Indonezija

platuma: 00-09S, ilguma: 109-24E, Aukštis: 3 m

Dabartinis oras

Ataskaita buvo paskelbta 34 minutes, ne 11:30 UTC
Vėjas 3 kt iš Šiaurės Vakarų
Temperatūra 27°C
Drėgmė 84%
Slėgis 1009 hPa
Matomumas: 6000 m
Išsisklaidę debesys ne aukštis 1200 ft

METAR: WIOO 061130Z 31003KT 6000 SCT012 27/24 Q1009 NOSIG

Laikas: 19:04 (12:04 UTC)


TAF: trūkstamas

Orai ataskaitas ir orų prognozės (METAR, TAF).

turimą stotys yra geltonos ir raudonos taškus žemėlapyje.

Perkelti pele per norėdami pamatyti stoties vardą.

Tada spustelėkite, norėdami matyti oro stebėjimo ir prognozės.

Norėdami pakeisti žemėlapį: spustelėkite ant žalios mygtukų su juodo kryžiaus žemyn,; žalią mygtuką su brūkšneliu, jei norite nutolinti; arba žalių rodyklių gretimoms žemėlapius.


METAR-TAF: